Meteorológiai információk azoknak akik tudják olvasni.

METAR = LHBP 232230Z 22004KT 190V250 CAVOK 15/14 Q1016 NOSIG

9 órás TAF = TAF TAF LHBP 182000Z 1820/1821 CNL

24 órás TAF = TAF TAF LHBP 231715Z 2318/2418 VRB03KT CAVOK TEMPO 2318/2322 VRB10G25KT TSRA SCT030CB BKN060 BECMG 2407/2410 28014KT TEMPO 2410/2418 32020G35KT SHRA BKN025

ÁLLOMÁS.................... LHBP
ÉSZLELÉS................... Wed May 24, 00:30 CEST
MOST....................... Wed May 24, 00:37 CEST
IDŐ........................ 7 perccel ezelőtt
SZÉL....................... DNY irányból 4 csomó
LÁTÁSTÁVOLSÁG.............. 10 km vagy több
FELHŐZET................... jelentős felhőzet nincs
HŐMÉRSÉKLET................ 59°F (15°C)
HARMATPONT................. 57°F (14°C)
PÁRATARTALOM............... 94%
LÉGNYOMÁS.................. 1016 hPa (30 in Hg)

További információ LHBP állomásról

Meteor információ kérése:        állomásról.    

 

www.tothgeza.hu

 

English version
Copyright © 2003-2017 Tóth Géza Minden jog fenntartva.